sensor_id;sensor_type;location;lat;lon;timestamp;P1;durP1;ratioP1;P2;durP2;ratioP2
76069;SDS011;64768;51.738;5.852;2022-12-18T00:00:19;93.63;;;35.65;;
76069;SDS011;64768;51.738;5.852;2022-12-18T00:02:48;78.72;;;27.55;;
76069;SDS011;64768;51.738;5.852;2022-12-18T00:05:17;72.82;;;30.23;;
76069;SDS011;64768;51.738;5.852;2022-12-18T00:07:45;80.70;;;32.53;;
76069;SDS011;64768;51.738;5.852;2022-12-18T00:10:19;89.57;;;39.85;;
76069;SDS011;64768;51.738;5.852;2022-12-18T00:12:48;76.47;;;26.45;;
76069;SDS011;64768;51.738;5.852;2022-12-18T00:15:16;65.43;;;26.67;;
76069;SDS011;64768;51.738;5.852;2022-12-18T00:17:45;72.53;;;29.23;;
76069;SDS011;64768;51.738;5.852;2022-12-18T00:20:14;69.28;;;27.25;;
76069;SDS011;64768;51.738;5.852;2022-12-18T00:22:46;76.20;;;33.25;;
76069;SDS011;64768;51.738;5.852;2022-12-18T00:25:15;71.60;;;29.17;;
76069;SDS011;64768;51.738;5.852;2022-12-18T00:27:47;66.90;;;28.40;;
76069;SDS011;64768;51.738;5.852;2022-12-18T00:30:16;74.60;;;33.05;;
76069;SDS011;64768;51.738;5.852;2022-12-18T00:32:45;71.72;;;33.03;;
76069;SDS011;64768;51.738;5.852;2022-12-18T00:35:14;64.93;;;26.90;;
76069;SDS011;64768;51.738;5.852;2022-12-18T00:37:43;67.22;;;30.30;;
76069;SDS011;64768;51.738;5.852;2022-12-18T00:40:11;47.65;;;20.85;;
76069;SDS011;64768;51.738;5.852;2022-12-18T00:42:40;70.18;;;30.38;;
76069;SDS011;64768;51.738;5.852;2022-12-18T00:45:24;35.45;;;15.18;;
76069;SDS011;64768;51.738;5.852;2022-12-18T00:47:53;46.20;;;17.85;;
76069;SDS011;64768;51.738;5.852;2022-12-18T00:50:23;60.00;;;27.08;;
76069;SDS011;64768;51.738;5.852;2022-12-18T00:52:53;51.80;;;23.30;;
76069;SDS011;64768;51.738;5.852;2022-12-18T00:55:21;65.47;;;29.35;;
76069;SDS011;64768;51.738;5.852;2022-12-18T00:57:50;67.68;;;28.20;;
76069;SDS011;64768;51.738;5.852;2022-12-18T01:00:19;60.00;;;26.42;;
76069;SDS011;64768;51.738;5.852;2022-12-18T01:02:50;64.22;;;30.48;;
76069;SDS011;64768;51.738;5.852;2022-12-18T01:05:19;62.25;;;27.33;;
76069;SDS011;64768;51.738;5.852;2022-12-18T01:07:47;57.78;;;27.17;;
76069;SDS011;64768;51.738;5.852;2022-12-18T01:10:16;65.28;;;28.05;;
76069;SDS011;64768;51.738;5.852;2022-12-18T01:12:45;46.40;;;23.35;;
76069;SDS011;64768;51.738;5.852;2022-12-18T01:15:14;61.28;;;28.67;;
76069;SDS011;64768;51.738;5.852;2022-12-18T01:17:43;62.28;;;27.17;;
76069;SDS011;64768;51.738;5.852;2022-12-18T01:20:14;65.55;;;33.17;;
76069;SDS011;64768;51.738;5.852;2022-12-18T01:22:42;63.80;;;29.15;;
76069;SDS011;64768;51.738;5.852;2022-12-18T01:25:11;58.30;;;25.88;;
76069;SDS011;64768;51.738;5.852;2022-12-18T01:27:40;48.97;;;26.00;;
76069;SDS011;64768;51.738;5.852;2022-12-18T01:30:09;51.90;;;24.50;;
76069;SDS011;64768;51.738;5.852;2022-12-18T01:32:38;56.20;;;26.55;;
76069;SDS011;64768;51.738;5.852;2022-12-18T01:35:07;60.55;;;34.00;;
76069;SDS011;64768;51.738;5.852;2022-12-18T01:37:38;54.38;;;26.67;;
76069;SDS011;64768;51.738;5.852;2022-12-18T01:40:07;55.97;;;27.92;;
76069;SDS011;64768;51.738;5.852;2022-12-18T01:42:37;51.88;;;22.85;;
76069;SDS011;64768;51.738;5.852;2022-12-18T01:45:08;50.45;;;24.65;;
76069;SDS011;64768;51.738;5.852;2022-12-18T01:47:51;47.85;;;23.50;;
76069;SDS011;64768;51.738;5.852;2022-12-18T01:50:23;52.95;;;25.48;;
76069;SDS011;64768;51.738;5.852;2022-12-18T01:52:56;55.85;;;26.15;;
76069;SDS011;64768;51.738;5.852;2022-12-18T01:55:29;43.20;;;20.95;;
76069;SDS011;64768;51.738;5.852;2022-12-18T01:58:00;47.42;;;24.33;;
76069;SDS011;64768;51.738;5.852;2022-12-18T02:00:32;47.58;;;24.13;;
76069;SDS011;64768;51.738;5.852;2022-12-18T02:03:01;52.03;;;25.27;;
76069;SDS011;64768;51.738;5.852;2022-12-18T02:05:40;49.03;;;23.25;;
76069;SDS011;64768;51.738;5.852;2022-12-18T02:08:18;49.80;;;24.88;;
76069;SDS011;64768;51.738;5.852;2022-12-18T02:10:52;51.33;;;22.67;;
76069;SDS011;64768;51.738;5.852;2022-12-18T02:13:31;46.20;;;22.30;;
76069;SDS011;64768;51.738;5.852;2022-12-18T02:16:09;28.40;;;14.10;;
76069;SDS011;64768;51.738;5.852;2022-12-18T02:18:47;42.60;;;22.23;;
76069;SDS011;64768;51.738;5.852;2022-12-18T02:21:21;48.38;;;22.15;;
76069;SDS011;64768;51.738;5.852;2022-12-18T02:24:04;48.63;;;21.45;;
76069;SDS011;64768;51.738;5.852;2022-12-18T02:26:48;48.97;;;23.27;;
76069;SDS011;64768;51.738;5.852;2022-12-18T02:29:20;47.72;;;20.83;;
76069;SDS011;64768;51.738;5.852;2022-12-18T02:31:53;46.58;;;22.77;;
76069;SDS011;64768;51.738;5.852;2022-12-18T02:34:25;39.58;;;19.52;;
76069;SDS011;64768;51.738;5.852;2022-12-18T02:36:57;41.78;;;19.88;;
76069;SDS011;64768;51.738;5.852;2022-12-18T02:39:30;42.25;;;19.73;;
76069;SDS011;64768;51.738;5.852;2022-12-18T02:42:04;43.53;;;19.35;;
76069;SDS011;64768;51.738;5.852;2022-12-18T02:44:35;38.55;;;19.42;;
76069;SDS011;64768;51.738;5.852;2022-12-18T02:47:11;39.35;;;18.40;;
76069;SDS011;64768;51.738;5.852;2022-12-18T02:49:44;36.28;;;18.63;;
76069;SDS011;64768;51.738;5.852;2022-12-18T02:52:21;40.17;;;18.15;;
76069;SDS011;64768;51.738;5.852;2022-12-18T02:54:57;38.35;;;17.48;;
76069;SDS011;64768;51.738;5.852;2022-12-18T02:57:39;33.38;;;17.23;;
76069;SDS011;64768;51.738;5.852;2022-12-18T03:00:14;26.38;;;14.13;;
76069;SDS011;64768;51.738;5.852;2022-12-18T03:02:47;40.17;;;18.65;;
76069;SDS011;64768;51.738;5.852;2022-12-18T03:05:19;39.15;;;18.63;;
76069;SDS011;64768;51.738;5.852;2022-12-18T03:07:53;29.98;;;15.38;;
76069;SDS011;64768;51.738;5.852;2022-12-18T03:10:26;35.80;;;17.05;;
76069;SDS011;64768;51.738;5.852;2022-12-18T03:13:02;41.53;;;20.45;;
76069;SDS011;64768;51.738;5.852;2022-12-18T03:15:34;32.47;;;16.80;;
76069;SDS011;64768;51.738;5.852;2022-12-18T03:18:07;35.80;;;18.20;;
76069;SDS011;64768;51.738;5.852;2022-12-18T03:20:39;36.95;;;19.30;;
76069;SDS011;64768;51.738;5.852;2022-12-18T03:23:11;36.85;;;18.02;;
76069;SDS011;64768;51.738;5.852;2022-12-18T03:25:44;35.95;;;19.05;;
76069;SDS011;64768;51.738;5.852;2022-12-18T03:28:18;39.47;;;21.17;;
76069;SDS011;64768;51.738;5.852;2022-12-18T03:30:52;32.88;;;18.23;;
76069;SDS011;64768;51.738;5.852;2022-12-18T03:33:25;36.15;;;17.75;;
76069;SDS011;64768;51.738;5.852;2022-12-18T03:35:57;38.22;;;21.00;;
76069;SDS011;64768;51.738;5.852;2022-12-18T03:38:26;35.45;;;15.43;;
76069;SDS011;64768;51.738;5.852;2022-12-18T03:40:56;34.30;;;18.95;;
76069;SDS011;64768;51.738;5.852;2022-12-18T03:43:34;31.17;;;19.88;;
76069;SDS011;64768;51.738;5.852;2022-12-18T03:46:12;31.33;;;17.27;;
76069;SDS011;64768;51.738;5.852;2022-12-18T03:48:48;36.70;;;20.80;;
76069;SDS011;64768;51.738;5.852;2022-12-18T03:51:22;34.83;;;19.75;;
76069;SDS011;64768;51.738;5.852;2022-12-18T03:53:55;34.15;;;19.10;;
76069;SDS011;64768;51.738;5.852;2022-12-18T03:56:29;34.42;;;17.98;;
76069;SDS011;64768;51.738;5.852;2022-12-18T03:59:03;35.50;;;21.38;;
76069;SDS011;64768;51.738;5.852;2022-12-18T04:01:34;30.10;;;16.77;;
76069;SDS011;64768;51.738;5.852;2022-12-18T04:04:06;33.38;;;20.58;;
76069;SDS011;64768;51.738;5.852;2022-12-18T04:06:37;36.22;;;20.45;;
76069;SDS011;64768;51.738;5.852;2022-12-18T04:09:06;32.42;;;18.42;;
76069;SDS011;64768;51.738;5.852;2022-12-18T04:11:35;34.22;;;17.83;;
76069;SDS011;64768;51.738;5.852;2022-12-18T04:14:07;34.55;;;18.75;;
76069;SDS011;64768;51.738;5.852;2022-12-18T04:16:35;34.28;;;18.40;;
76069;SDS011;64768;51.738;5.852;2022-12-18T04:19:04;28.38;;;16.83;;
76069;SDS011;64768;51.738;5.852;2022-12-18T04:21:33;33.28;;;18.23;;
76069;SDS011;64768;51.738;5.852;2022-12-18T04:24:01;32.08;;;20.25;;
76069;SDS011;64768;51.738;5.852;2022-12-18T04:26:30;28.05;;;15.00;;
76069;SDS011;64768;51.738;5.852;2022-12-18T04:28:59;30.52;;;18.08;;
76069;SDS011;64768;51.738;5.852;2022-12-18T04:31:30;30.58;;;18.38;;
76069;SDS011;64768;51.738;5.852;2022-12-18T04:33:59;30.90;;;18.88;;
76069;SDS011;64768;51.738;5.852;2022-12-18T04:36:27;27.70;;;17.52;;
76069;SDS011;64768;51.738;5.852;2022-12-18T04:38:56;28.92;;;16.48;;
76069;SDS011;64768;51.738;5.852;2022-12-18T04:41:24;31.83;;;20.30;;
76069;SDS011;64768;51.738;5.852;2022-12-18T04:43:53;27.17;;;16.85;;
76069;SDS011;64768;51.738;5.852;2022-12-18T04:46:21;27.88;;;16.00;;
76069;SDS011;64768;51.738;5.852;2022-12-18T04:48:53;26.48;;;14.35;;
76069;SDS011;64768;51.738;5.852;2022-12-18T04:51:21;28.67;;;16.40;;
76069;SDS011;64768;51.738;5.852;2022-12-18T04:53:50;30.27;;;18.95;;
76069;SDS011;64768;51.738;5.852;2022-12-18T04:56:18;29.50;;;17.30;;
76069;SDS011;64768;51.738;5.852;2022-12-18T04:58:47;29.33;;;16.25;;
76069;SDS011;64768;51.738;5.852;2022-12-18T05:01:17;28.42;;;17.42;;
76069;SDS011;64768;51.738;5.852;2022-12-18T05:03:45;30.25;;;16.83;;
76069;SDS011;64768;51.738;5.852;2022-12-18T05:06:17;29.17;;;16.90;;
76069;SDS011;64768;51.738;5.852;2022-12-18T05:08:45;28.30;;;16.35;;
76069;SDS011;64768;51.738;5.852;2022-12-18T05:11:14;28.42;;;16.63;;
76069;SDS011;64768;51.738;5.852;2022-12-18T05:13:44;27.88;;;16.92;;
76069;SDS011;64768;51.738;5.852;2022-12-18T05:16:13;26.30;;;15.45;;
76069;SDS011;64768;51.738;5.852;2022-12-18T05:18:42;26.95;;;15.48;;
76069;SDS011;64768;51.738;5.852;2022-12-18T05:21:11;22.90;;;12.93;;
76069;SDS011;64768;51.738;5.852;2022-12-18T05:23:42;27.90;;;14.38;;
76069;SDS011;64768;51.738;5.852;2022-12-18T05:26:14;22.50;;;11.90;;
76069;SDS011;64768;51.738;5.852;2022-12-18T05:28:44;29.05;;;16.15;;
76069;SDS011;64768;51.738;5.852;2022-12-18T05:31:12;32.10;;;16.92;;
76069;SDS011;64768;51.738;5.852;2022-12-18T05:33:42;28.13;;;17.60;;
76069;SDS011;64768;51.738;5.852;2022-12-18T05:36:10;18.55;;;10.88;;
76069;SDS011;64768;51.738;5.852;2022-12-18T05:38:41;21.90;;;12.48;;
76069;SDS011;64768;51.738;5.852;2022-12-18T05:41:10;21.02;;;11.52;;
76069;SDS011;64768;51.738;5.852;2022-12-18T05:43:39;30.05;;;14.27;;
76069;SDS011;64768;51.738;5.852;2022-12-18T05:46:08;30.05;;;15.90;;
76069;SDS011;64768;51.738;5.852;2022-12-18T05:48:41;30.25;;;18.70;;
76069;SDS011;64768;51.738;5.852;2022-12-18T05:51:11;26.83;;;14.98;;
76069;SDS011;64768;51.738;5.852;2022-12-18T05:53:43;29.20;;;16.13;;
76069;SDS011;64768;51.738;5.852;2022-12-18T05:56:13;29.88;;;16.77;;
76069;SDS011;64768;51.738;5.852;2022-12-18T05:58:44;29.50;;;18.83;;
76069;SDS011;64768;51.738;5.852;2022-12-18T06:01:14;29.45;;;15.75;;
76069;SDS011;64768;51.738;5.852;2022-12-18T06:03:44;31.83;;;16.52;;
76069;SDS011;64768;51.738;5.852;2022-12-18T06:06:14;28.13;;;16.27;;
76069;SDS011;64768;51.738;5.852;2022-12-18T06:08:47;29.92;;;17.92;;
76069;SDS011;64768;51.738;5.852;2022-12-18T06:11:16;25.17;;;14.73;;
76069;SDS011;64768;51.738;5.852;2022-12-18T06:13:49;26.75;;;16.15;;
76069;SDS011;64768;51.738;5.852;2022-12-18T06:16:18;31.40;;;19.77;;
76069;SDS011;64768;51.738;5.852;2022-12-18T06:18:46;27.70;;;16.33;;
76069;SDS011;64768;51.738;5.852;2022-12-18T06:21:15;29.00;;;17.60;;
76069;SDS011;64768;51.738;5.852;2022-12-18T06:23:46;28.88;;;14.73;;
76069;SDS011;64768;51.738;5.852;2022-12-18T06:26:14;28.90;;;15.85;;
76069;SDS011;64768;51.738;5.852;2022-12-18T06:28:43;29.20;;;16.95;;
76069;SDS011;64768;51.738;5.852;2022-12-18T06:31:11;24.90;;;14.05;;
76069;SDS011;64768;51.738;5.852;2022-12-18T06:33:40;27.98;;;15.27;;
76069;SDS011;64768;51.738;5.852;2022-12-18T06:36:10;31.20;;;19.02;;
76069;SDS011;64768;51.738;5.852;2022-12-18T06:38:41;25.65;;;14.75;;
76069;SDS011;64768;51.738;5.852;2022-12-18T06:41:14;24.83;;;15.23;;
76069;SDS011;64768;51.738;5.852;2022-12-18T06:43:44;26.10;;;14.52;;
76069;SDS011;64768;51.738;5.852;2022-12-18T06:46:13;27.98;;;14.88;;
76069;SDS011;64768;51.738;5.852;2022-12-18T06:48:42;29.23;;;16.75;;
76069;SDS011;64768;51.738;5.852;2022-12-18T06:51:10;24.27;;;17.23;;
76069;SDS011;64768;51.738;5.852;2022-12-18T06:53:39;28.60;;;16.95;;
76069;SDS011;64768;51.738;5.852;2022-12-18T06:56:08;28.73;;;15.00;;
76069;SDS011;64768;51.738;5.852;2022-12-18T06:58:39;24.98;;;14.80;;
76069;SDS011;64768;51.738;5.852;2022-12-18T07:01:09;26.63;;;15.45;;
76069;SDS011;64768;51.738;5.852;2022-12-18T07:03:40;24.63;;;12.82;;
76069;SDS011;64768;51.738;5.852;2022-12-18T07:06:13;27.30;;;13.45;;
76069;SDS011;64768;51.738;5.852;2022-12-18T07:08:42;24.40;;;14.07;;
76069;SDS011;64768;51.738;5.852;2022-12-18T07:11:11;25.63;;;14.30;;
76069;SDS011;64768;51.738;5.852;2022-12-18T07:13:44;23.52;;;12.43;;
76069;SDS011;64768;51.738;5.852;2022-12-18T07:16:17;26.08;;;15.18;;
76069;SDS011;64768;51.738;5.852;2022-12-18T07:18:47;24.17;;;14.07;;
76069;SDS011;64768;51.738;5.852;2022-12-18T07:21:16;25.35;;;15.18;;
76069;SDS011;64768;51.738;5.852;2022-12-18T07:23:45;23.98;;;14.32;;
76069;SDS011;64768;51.738;5.852;2022-12-18T07:26:15;23.25;;;14.15;;
76069;SDS011;64768;51.738;5.852;2022-12-18T07:31:17;22.38;;;12.73;;
76069;SDS011;64768;51.738;5.852;2022-12-18T07:33:47;25.42;;;15.30;;
76069;SDS011;64768;51.738;5.852;2022-12-18T07:36:17;24.75;;;15.50;;
76069;SDS011;64768;51.738;5.852;2022-12-18T07:38:47;21.13;;;12.82;;
76069;SDS011;64768;51.738;5.852;2022-12-18T07:41:17;26.55;;;14.32;;
76069;SDS011;64768;51.738;5.852;2022-12-18T07:43:51;24.88;;;15.55;;
76069;SDS011;64768;51.738;5.852;2022-12-18T07:46:20;23.90;;;12.88;;
76069;SDS011;64768;51.738;5.852;2022-12-18T07:48:50;25.55;;;17.27;;
76069;SDS011;64768;51.738;5.852;2022-12-18T07:51:19;23.83;;;13.25;;
76069;SDS011;64768;51.738;5.852;2022-12-18T07:53:59;26.77;;;15.32;;
76069;SDS011;64768;51.738;5.852;2022-12-18T07:56:28;25.52;;;13.10;;
76069;SDS011;64768;51.738;5.852;2022-12-18T07:58:59;27.63;;;15.43;;
76069;SDS011;64768;51.738;5.852;2022-12-18T08:01:28;27.67;;;15.98;;
76069;SDS011;64768;51.738;5.852;2022-12-18T08:03:56;23.05;;;14.80;;
76069;SDS011;64768;51.738;5.852;2022-12-18T08:06:25;23.73;;;13.23;;
76069;SDS011;64768;51.738;5.852;2022-12-18T08:08:54;23.60;;;16.27;;
76069;SDS011;64768;51.738;5.852;2022-12-18T08:11:24;22.95;;;15.27;;
76069;SDS011;64768;51.738;5.852;2022-12-18T08:13:54;24.23;;;16.27;;
76069;SDS011;64768;51.738;5.852;2022-12-18T08:16:25;19.10;;;13.18;;
76069;SDS011;64768;51.738;5.852;2022-12-18T08:18:55;22.77;;;14.88;;
76069;SDS011;64768;51.738;5.852;2022-12-18T08:21:24;22.45;;;14.65;;
76069;SDS011;64768;51.738;5.852;2022-12-18T08:23:55;23.25;;;14.55;;
76069;SDS011;64768;51.738;5.852;2022-12-18T08:26:26;23.23;;;14.25;;
76069;SDS011;64768;51.738;5.852;2022-12-18T08:28:57;23.00;;;15.05;;
76069;SDS011;64768;51.738;5.852;2022-12-18T08:31:30;20.15;;;12.13;;
76069;SDS011;64768;51.738;5.852;2022-12-18T08:33:58;20.30;;;13.43;;
76069;SDS011;64768;51.738;5.852;2022-12-18T08:36:28;19.70;;;11.60;;
76069;SDS011;64768;51.738;5.852;2022-12-18T08:38:56;22.13;;;13.30;;
76069;SDS011;64768;51.738;5.852;2022-12-18T08:41:25;17.25;;;10.73;;
76069;SDS011;64768;51.738;5.852;2022-12-18T08:43:54;21.65;;;12.07;;
76069;SDS011;64768;51.738;5.852;2022-12-18T08:46:39;19.05;;;13.05;;
76069;SDS011;64768;51.738;5.852;2022-12-18T08:49:09;21.70;;;12.75;;
76069;SDS011;64768;51.738;5.852;2022-12-18T08:51:38;25.55;;;13.70;;
76069;SDS011;64768;51.738;5.852;2022-12-18T08:54:08;20.80;;;14.25;;
76069;SDS011;64768;51.738;5.852;2022-12-18T08:56:39;20.73;;;13.82;;
76069;SDS011;64768;51.738;5.852;2022-12-18T08:59:08;21.80;;;14.18;;
76069;SDS011;64768;51.738;5.852;2022-12-18T09:01:39;21.10;;;13.32;;
76069;SDS011;64768;51.738;5.852;2022-12-18T09:04:08;21.23;;;14.32;;
76069;SDS011;64768;51.738;5.852;2022-12-18T09:06:37;19.60;;;11.98;;
76069;SDS011;64768;51.738;5.852;2022-12-18T09:09:06;20.77;;;11.60;;
76069;SDS011;64768;51.738;5.852;2022-12-18T09:11:35;22.05;;;15.07;;
76069;SDS011;64768;51.738;5.852;2022-12-18T09:14:03;21.50;;;13.25;;
76069;SDS011;64768;51.738;5.852;2022-12-18T09:16:32;21.45;;;13.93;;
76069;SDS011;64768;51.738;5.852;2022-12-18T09:19:04;21.42;;;14.35;;
76069;SDS011;64768;51.738;5.852;2022-12-18T09:21:33;19.45;;;12.23;;
76069;SDS011;64768;51.738;5.852;2022-12-18T09:24:04;19.65;;;11.88;;
76069;SDS011;64768;51.738;5.852;2022-12-18T09:26:34;20.10;;;11.38;;
76069;SDS011;64768;51.738;5.852;2022-12-18T09:29:02;18.30;;;11.90;;
76069;SDS011;64768;51.738;5.852;2022-12-18T09:31:32;20.55;;;12.10;;
76069;SDS011;64768;51.738;5.852;2022-12-18T09:34:04;19.38;;;11.07;;
76069;SDS011;64768;51.738;5.852;2022-12-18T09:36:32;20.58;;;12.13;;
76069;SDS011;64768;51.738;5.852;2022-12-18T09:39:01;19.90;;;13.25;;
76069;SDS011;64768;51.738;5.852;2022-12-18T09:41:40;17.55;;;11.32;;
76069;SDS011;64768;51.738;5.852;2022-12-18T09:44:15;20.73;;;13.57;;
76069;SDS011;64768;51.738;5.852;2022-12-18T09:46:48;19.08;;;13.80;;
76069;SDS011;64768;51.738;5.852;2022-12-18T09:49:25;21.88;;;14.25;;
76069;SDS011;64768;51.738;5.852;2022-12-18T09:51:57;23.70;;;12.88;;
76069;SDS011;64768;51.738;5.852;2022-12-18T09:54:31;20.83;;;13.07;;
76069;SDS011;64768;51.738;5.852;2022-12-18T09:57:04;16.85;;;11.25;;
76069;SDS011;64768;51.738;5.852;2022-12-18T09:59:34;19.48;;;11.32;;
76069;SDS011;64768;51.738;5.852;2022-12-18T10:02:14;21.65;;;11.73;;
76069;SDS011;64768;51.738;5.852;2022-12-18T10:04:55;20.65;;;12.35;;
76069;SDS011;64768;51.738;5.852;2022-12-18T10:07:33;20.77;;;12.60;;
76069;SDS011;64768;51.738;5.852;2022-12-18T10:10:14;19.05;;;12.45;;
76069;SDS011;64768;51.738;5.852;2022-12-18T10:12:53;23.48;;;14.55;;
76069;SDS011;64768;51.738;5.852;2022-12-18T10:15:31;17.48;;;12.65;;
76069;SDS011;64768;51.738;5.852;2022-12-18T10:18:13;18.55;;;12.77;;
76069;SDS011;64768;51.738;5.852;2022-12-18T10:23:25;15.73;;;9.57;;
76069;SDS011;64768;51.738;5.852;2022-12-18T10:26:01;17.52;;;12.25;;
76069;SDS011;64768;51.738;5.852;2022-12-18T10:28:32;17.95;;;13.18;;
76069;SDS011;64768;51.738;5.852;2022-12-18T10:31:04;19.02;;;11.43;;
76069;SDS011;64768;51.738;5.852;2022-12-18T10:33:34;19.33;;;11.95;;
76069;SDS011;64768;51.738;5.852;2022-12-18T10:36:05;16.00;;;10.70;;
76069;SDS011;64768;51.738;5.852;2022-12-18T10:38:34;17.77;;;11.70;;
76069;SDS011;64768;51.738;5.852;2022-12-18T10:41:04;18.00;;;11.23;;
76069;SDS011;64768;51.738;5.852;2022-12-18T10:43:36;19.45;;;12.55;;
76069;SDS011;64768;51.738;5.852;2022-12-18T10:46:14;17.98;;;12.13;;
76069;SDS011;64768;51.738;5.852;2022-12-18T10:48:49;18.70;;;11.60;;
76069;SDS011;64768;51.738;5.852;2022-12-18T10:51:24;18.88;;;11.70;;
76069;SDS011;64768;51.738;5.852;2022-12-18T10:53:56;19.20;;;11.93;;
76069;SDS011;64768;51.738;5.852;2022-12-18T10:56:27;19.15;;;12.68;;
76069;SDS011;64768;51.738;5.852;2022-12-18T10:58:59;17.52;;;13.25;;
76069;SDS011;64768;51.738;5.852;2022-12-18T11:01:30;20.42;;;10.75;;
76069;SDS011;64768;51.738;5.852;2022-12-18T11:04:16;17.90;;;12.82;;
76069;SDS011;64768;51.738;5.852;2022-12-18T11:07:00;20.55;;;13.13;;
76069;SDS011;64768;51.738;5.852;2022-12-18T11:09:30;19.00;;;12.55;;
76069;SDS011;64768;51.738;5.852;2022-12-18T11:12:00;19.77;;;13.93;;
76069;SDS011;64768;51.738;5.852;2022-12-18T11:14:32;18.90;;;11.38;;
76069;SDS011;64768;51.738;5.852;2022-12-18T11:17:03;21.15;;;12.40;;
76069;SDS011;64768;51.738;5.852;2022-12-18T11:19:33;19.45;;;11.63;;
76069;SDS011;64768;51.738;5.852;2022-12-18T11:22:17;18.15;;;11.23;;
76069;SDS011;64768;51.738;5.852;2022-12-18T11:24:52;19.55;;;11.63;;
76069;SDS011;64768;51.738;5.852;2022-12-18T11:27:23;18.10;;;12.50;;
76069;SDS011;64768;51.738;5.852;2022-12-18T11:29:52;19.05;;;12.00;;
76069;SDS011;64768;51.738;5.852;2022-12-18T11:32:29;20.13;;;12.43;;
76069;SDS011;64768;51.738;5.852;2022-12-18T11:35:03;17.75;;;12.60;;
76069;SDS011;64768;51.738;5.852;2022-12-18T11:37:43;18.48;;;12.32;;
76069;SDS011;64768;51.738;5.852;2022-12-18T11:40:17;17.45;;;10.77;;
76069;SDS011;64768;51.738;5.852;2022-12-18T11:42:50;17.90;;;11.82;;
76069;SDS011;64768;51.738;5.852;2022-12-18T11:45:24;16.67;;;11.50;;
76069;SDS011;64768;51.738;5.852;2022-12-18T11:47:57;20.08;;;11.77;;
76069;SDS011;64768;51.738;5.852;2022-12-18T11:50:31;19.27;;;11.23;;
76069;SDS011;64768;51.738;5.852;2022-12-18T11:53:12;18.77;;;10.82;;
76069;SDS011;64768;51.738;5.852;2022-12-18T11:55:41;18.75;;;10.95;;
76069;SDS011;64768;51.738;5.852;2022-12-18T11:58:19;16.98;;;10.95;;
76069;SDS011;64768;51.738;5.852;2022-12-18T12:00:56;17.08;;;10.15;;
76069;SDS011;64768;51.738;5.852;2022-12-18T12:03:39;12.43;;;7.30;;
76069;SDS011;64768;51.738;5.852;2022-12-18T12:06:26;20.63;;;13.15;;
76069;SDS011;64768;51.738;5.852;2022-12-18T12:09:10;19.08;;;11.98;;
76069;SDS011;64768;51.738;5.852;2022-12-18T12:11:49;18.35;;;10.73;;
76069;SDS011;64768;51.738;5.852;2022-12-18T12:14:34;16.98;;;10.65;;
76069;SDS011;64768;51.738;5.852;2022-12-18T12:17:16;19.33;;;12.13;;
76069;SDS011;64768;51.738;5.852;2022-12-18T12:19:54;21.67;;;13.30;;
76069;SDS011;64768;51.738;5.852;2022-12-18T12:22:30;19.80;;;13.18;;
76069;SDS011;64768;51.738;5.852;2022-12-18T12:25:13;21.77;;;13.15;;
76069;SDS011;64768;51.738;5.852;2022-12-18T12:28:00;20.73;;;13.40;;
76069;SDS011;64768;51.738;5.852;2022-12-18T12:30:39;20.20;;;11.82;;
76069;SDS011;64768;51.738;5.852;2022-12-18T12:33:20;22.13;;;14.30;;
76069;SDS011;64768;51.738;5.852;2022-12-18T12:35:59;20.05;;;12.88;;
76069;SDS011;64768;51.738;5.852;2022-12-18T12:38:37;17.02;;;11.38;;
76069;SDS011;64768;51.738;5.852;2022-12-18T12:41:14;23.30;;;12.73;;
76069;SDS011;64768;51.738;5.852;2022-12-18T12:43:58;17.75;;;11.82;;
76069;SDS011;64768;51.738;5.852;2022-12-18T12:46:34;20.10;;;13.95;;
76069;SDS011;64768;51.738;5.852;2022-12-18T12:49:09;18.85;;;11.88;;
76069;SDS011;64768;51.738;5.852;2022-12-18T12:51:41;17.92;;;12.05;;
76069;SDS011;64768;51.738;5.852;2022-12-18T12:54:14;16.75;;;10.45;;
76069;SDS011;64768;51.738;5.852;2022-12-18T12:56:48;18.95;;;12.63;;
76069;SDS011;64768;51.738;5.852;2022-12-18T12:59:28;21.23;;;13.95;;
76069;SDS011;64768;51.738;5.852;2022-12-18T13:02:05;18.50;;;12.38;;
76069;SDS011;64768;51.738;5.852;2022-12-18T13:04:42;18.55;;;11.88;;
76069;SDS011;64768;51.738;5.852;2022-12-18T13:07:17;20.13;;;13.77;;
76069;SDS011;64768;51.738;5.852;2022-12-18T13:12:55;19.75;;;12.63;;
76069;SDS011;64768;51.738;5.852;2022-12-18T13:15:23;17.50;;;12.73;;
76069;SDS011;64768;51.738;5.852;2022-12-18T13:18:03;21.55;;;14.60;;
76069;SDS011;64768;51.738;5.852;2022-12-18T13:20:34;19.30;;;13.32;;
76069;SDS011;64768;51.738;5.852;2022-12-18T13:23:19;18.25;;;12.13;;
76069;SDS011;64768;51.738;5.852;2022-12-18T13:25:59;18.33;;;12.10;;
76069;SDS011;64768;51.738;5.852;2022-12-18T13:34:25;21.85;;;14.82;;
76069;SDS011;64768;51.738;5.852;2022-12-18T13:36:55;20.33;;;14.30;;
76069;SDS011;64768;51.738;5.852;2022-12-18T13:39:44;19.80;;;12.55;;
76069;SDS011;64768;51.738;5.852;2022-12-18T13:48:16;18.90;;;11.80;;
76069;SDS011;64768;51.738;5.852;2022-12-18T13:50:52;18.52;;;12.02;;
76069;SDS011;64768;51.738;5.852;2022-12-18T13:53:24;21.02;;;13.63;;
76069;SDS011;64768;51.738;5.852;2022-12-18T13:55:55;21.55;;;14.73;;
76069;SDS011;64768;51.738;5.852;2022-12-18T13:58:25;17.92;;;11.80;;
76069;SDS011;64768;51.738;5.852;2022-12-18T14:00:56;22.83;;;14.82;;
76069;SDS011;64768;51.738;5.852;2022-12-18T14:03:27;21.60;;;14.23;;
76069;SDS011;64768;51.738;5.852;2022-12-18T14:06:02;20.73;;;12.27;;
76069;SDS011;64768;51.738;5.852;2022-12-18T14:08:36;23.35;;;13.45;;
76069;SDS011;64768;51.738;5.852;2022-12-18T14:11:07;21.30;;;12.48;;
76069;SDS011;64768;51.738;5.852;2022-12-18T14:13:45;22.45;;;14.52;;
76069;SDS011;64768;51.738;5.852;2022-12-18T14:16:17;19.88;;;13.65;;
76069;SDS011;64768;51.738;5.852;2022-12-18T14:18:46;21.38;;;14.07;;
76069;SDS011;64768;51.738;5.852;2022-12-18T14:21:20;23.10;;;14.32;;
76069;SDS011;64768;51.738;5.852;2022-12-18T14:24:02;20.77;;;12.85;;
76069;SDS011;64768;51.738;5.852;2022-12-18T14:26:32;23.02;;;14.27;;
76069;SDS011;64768;51.738;5.852;2022-12-18T14:29:17;22.45;;;15.30;;
76069;SDS011;64768;51.738;5.852;2022-12-18T14:34:36;22.92;;;13.68;;
76069;SDS011;64768;51.738;5.852;2022-12-18T14:37:05;21.25;;;13.18;;
76069;SDS011;64768;51.738;5.852;2022-12-18T14:39:37;25.10;;;14.88;;
76069;SDS011;64768;51.738;5.852;2022-12-18T14:42:09;22.90;;;14.13;;
76069;SDS011;64768;51.738;5.852;2022-12-18T14:44:39;23.98;;;14.80;;
76069;SDS011;64768;51.738;5.852;2022-12-18T14:47:15;22.27;;;14.02;;
76069;SDS011;64768;51.738;5.852;2022-12-18T14:49:44;21.55;;;15.60;;
76069;SDS011;64768;51.738;5.852;2022-12-18T14:52:19;22.48;;;16.95;;
76069;SDS011;64768;51.738;5.852;2022-12-18T14:54:54;21.05;;;14.20;;
76069;SDS011;64768;51.738;5.852;2022-12-18T14:57:23;23.60;;;13.85;;
76069;SDS011;64768;51.738;5.852;2022-12-18T14:59:53;21.73;;;14.73;;
76069;SDS011;64768;51.738;5.852;2022-12-18T15:02:35;27.58;;;15.05;;
76069;SDS011;64768;51.738;5.852;2022-12-18T15:05:05;21.75;;;12.93;;
76069;SDS011;64768;51.738;5.852;2022-12-18T15:07:45;22.25;;;13.88;;
76069;SDS011;64768;51.738;5.852;2022-12-18T15:10:15;24.55;;;14.25;;
76069;SDS011;64768;51.738;5.852;2022-12-18T15:12:46;25.52;;;15.00;;